createdAt,value
2017-09-22T00:00:00.378Z,70.97
2017-09-22T00:01:54.810Z,71.83
2017-09-22T00:02:54.827Z,71.55
2017-09-22T00:04:49.283Z,71.64
2017-09-22T00:05:49.323Z,71.55
2017-09-22T00:07:43.811Z,71.55
2017-09-22T00:08:43.827Z,71.73
2017-09-22T00:10:38.267Z,71.73
2017-09-22T00:11:38.435Z,71.64
2017-09-22T00:13:43.499Z,71.26
2017-09-22T00:14:43.509Z,71.64
2017-09-22T00:16:37.989Z,71.36
2017-09-22T00:17:37.996Z,72.02
2017-09-22T00:19:31.475Z,71.83
2017-09-22T00:20:31.508Z,71.64
2017-09-22T00:22:25.996Z,71.93
2017-09-22T00:23:26.011Z,72.12
2017-09-22T00:25:20.460Z,72.22
2017-09-22T00:26:20.500Z,72.12
2017-09-22T00:28:14.972Z,72.12
2017-09-22T00:29:15.012Z,72.28
2017-09-22T00:31:09.459Z,71.83
2017-09-22T00:32:09.476Z,71.83
2017-09-22T00:34:03.932Z,72.50
2017-09-22T00:35:03.980Z,72.28
2017-09-22T00:36:58.453Z,72.28
2017-09-22T00:37:58.460Z,72.28
2017-09-22T00:39:52.908Z,72.47
2017-09-22T00:40:52.957Z,72.47
2017-09-22T00:42:47.440Z,72.69
2017-09-22T00:43:47.444Z,72.08
2017-09-22T00:45:41.937Z,72.37
2017-09-22T00:46:41.952Z,72.28
2017-09-22T00:48:36.420Z,72.94
2017-09-22T00:49:36.444Z,72.94
2017-09-22T00:51:30.909Z,72.94
2017-09-22T00:52:30.924Z,72.47
2017-09-22T00:54:25.396Z,72.56
2017-09-22T00:55:25.413Z,72.94
2017-09-22T00:57:19.885Z,73.04
2017-09-22T00:58:19.893Z,72.94
2017-09-22T01:00:14.372Z,72.94
2017-09-22T01:01:14.413Z,72.75
2017-09-22T01:03:08.952Z,72.47
2017-09-22T01:04:08.902Z,72.47
2017-09-22T01:06:03.349Z,72.85
2017-09-22T01:07:03.389Z,72.75
2017-09-22T01:08:57.869Z,72.85
2017-09-22T01:09:57.877Z,73.14
2017-09-22T01:11:52.341Z,73.61
2017-09-22T01:12:52.405Z,73.52
2017-09-22T01:14:46.877Z,73.61
2017-09-22T01:15:46.877Z,73.33
2017-09-22T01:17:41.398Z,73.43
2017-09-22T01:18:41.358Z,73.23
2017-09-22T01:20:36.006Z,73.52
2017-09-22T01:21:35.869Z,73.33
2017-09-22T01:23:54.998Z,73.61
2017-09-22T01:24:54.918Z,73.43
2017-09-22T01:26:49.381Z,73.71
2017-09-22T01:27:49.366Z,73.80
2017-09-22T01:29:43.790Z,73.71
2017-09-22T01:30:43.829Z,73.61
2017-09-22T01:32:38.333Z,73.80
2017-09-22T01:33:38.346Z,74.09
2017-09-22T01:35:44.546Z,73.61
2017-09-22T01:36:44.583Z,73.80
2017-09-22T01:38:38.022Z,74.19
2017-09-22T01:39:38.078Z,74.38
2017-09-22T01:41:32.502Z,74.82
2017-09-22T01:42:32.550Z,74.66
2017-09-22T01:44:27.015Z,74.53
2017-09-22T01:45:27.022Z,74.63
2017-09-22T01:47:21.487Z,74.34
2017-09-22T01:48:21.534Z,74.73
2017-09-22T01:50:15.991Z,74.73
2017-09-22T01:51:16.014Z,74.44
2017-09-22T01:53:09.467Z,74.44
2017-09-22T01:54:09.510Z,74.44
2017-09-22T01:56:03.990Z,74.73
2017-09-22T01:57:04.007Z,75.01
2017-09-22T01:59:00.287Z,74.63
2017-09-22T02:00:00.335Z,74.63
2017-09-22T02:01:53.719Z,74.91
2017-09-22T02:02:53.743Z,74.73
2017-09-22T02:04:48.195Z,74.53
2017-09-22T02:05:48.231Z,74.82
2017-09-22T02:07:42.887Z,75.01
2017-09-22T02:08:42.728Z,75.30
2017-09-22T02:10:37.167Z,75.20
2017-09-22T02:11:37.208Z,75.01
2017-09-22T02:13:31.711Z,75.10
2017-09-22T02:14:31.698Z,75.20
2017-09-22T02:16:26.151Z,75.10
2017-09-22T02:17:26.184Z,74.73
2017-09-22T02:19:20.713Z,75.20
2017-09-22T02:20:20.672Z,75.39
2017-09-22T02:22:15.144Z,75.20
2017-09-22T02:23:15.184Z,75.39
2017-09-22T02:25:09.648Z,75.39
2017-09-22T02:26:09.664Z,75.20
2017-09-22T02:28:04.137Z,75.01
2017-09-22T02:29:04.164Z,75.30
2017-09-22T02:30:57.658Z,75.30
2017-09-22T02:31:57.648Z,75.20
2017-09-22T02:33:52.089Z,75.20
2017-09-22T02:34:52.145Z,75.10
2017-09-22T02:36:46.601Z,75.30
2017-09-22T02:37:46.625Z,75.30
2017-09-22T02:39:41.098Z,75.10
2017-09-22T02:40:41.122Z,75.59
2017-09-22T02:42:35.561Z,75.01
2017-09-22T02:43:35.604Z,75.30
2017-09-22T02:45:30.121Z,75.39
2017-09-22T02:46:30.114Z,75.30
2017-09-22T02:48:24.601Z,75.74
2017-09-22T02:49:24.594Z,75.59
2017-09-22T02:51:19.043Z,75.35
2017-09-22T02:52:19.122Z,75.78
2017-09-22T02:54:25.323Z,75.64
2017-09-22T02:55:25.393Z,75.83
2017-09-22T02:57:19.778Z,75.35
2017-09-22T02:58:19.817Z,75.54
2017-09-22T03:00:14.298Z,75.64
2017-09-22T03:01:14.298Z,75.45
2017-09-22T03:03:08.778Z,76.03
2017-09-22T03:04:08.794Z,75.54
2017-09-22T03:06:03.274Z,75.74
2017-09-22T03:07:03.292Z,75.54
2017-09-22T03:08:57.746Z,75.83
2017-09-22T03:09:57.810Z,75.83
2017-09-22T03:12:04.210Z,75.83
2017-09-22T03:13:04.235Z,76.03
2017-09-22T03:14:58.698Z,76.12
2017-09-22T03:15:58.699Z,75.35
2017-09-22T03:17:53.173Z,75.74
2017-09-22T03:18:53.186Z,75.64
2017-09-22T03:20:47.658Z,75.45
2017-09-22T03:21:47.730Z,75.93
2017-09-22T03:23:56.195Z,75.54
2017-09-22T03:24:56.156Z,75.45
2017-09-22T03:26:49.506Z,75.45
2017-09-22T03:27:49.514Z,75.64
2017-09-22T03:29:43.987Z,75.54
2017-09-22T03:30:44.012Z,75.74
2017-09-22T03:32:37.451Z,76.03
2017-09-22T03:33:37.507Z,76.03
2017-09-22T03:35:32.004Z,76.40
2017-09-22T03:36:31.979Z,76.31
2017-09-22T03:38:25.436Z,76.21
2017-09-22T03:39:25.523Z,76.40
2017-09-22T03:41:19.962Z,76.12
2017-09-22T03:42:19.956Z,76.31
2017-09-22T03:44:14.414Z,76.40
2017-09-22T03:45:14.451Z,76.50
2017-09-22T03:47:08.916Z,76.50
2017-09-22T03:48:08.940Z,76.50
2017-09-22T03:50:03.404Z,76.50
2017-09-22T03:51:03.412Z,76.50
2017-09-22T03:52:57.860Z,76.98
2017-09-22T03:53:57.972Z,76.69
2017-09-22T03:55:52.628Z,76.40
2017-09-22T03:56:52.396Z,76.79
2017-09-22T03:58:46.845Z,76.60
2017-09-22T03:59:47.013Z,76.50
2017-09-22T04:01:41.356Z,77.08
2017-09-22T04:02:41.381Z,76.98
2017-09-22T04:04:35.856Z,76.88
2017-09-22T04:05:35.869Z,76.98
2017-09-22T04:07:30.597Z,76.18
2017-09-22T04:08:30.389Z,76.18
2017-09-22T04:10:24.844Z,76.27
2017-09-22T04:11:24.845Z,76.56
2017-09-22T04:13:19.301Z,76.65
2017-09-22T04:14:19.349Z,77.03
2017-09-22T04:16:12.813Z,76.46
2017-09-22T04:17:12.837Z,76.56
2017-09-22T04:19:07.366Z,76.75
2017-09-22T04:20:07.325Z,76.94
2017-09-22T04:22:01.809Z,76.69
2017-09-22T04:23:01.822Z,76.84
2017-09-22T04:24:55.288Z,76.75
2017-09-22T04:25:55.302Z,76.56
2017-09-22T04:27:51.500Z,76.18
2017-09-22T04:28:51.413Z,76.18
2017-09-22T04:30:45.814Z,76.46
2017-09-22T04:31:45.837Z,76.65
2017-09-22T04:33:40.286Z,76.84
2017-09-22T04:34:40.326Z,76.65
2017-09-22T04:36:34.070Z,77.03
2017-09-22T04:37:33.822Z,76.75
2017-09-22T04:39:28.278Z,76.94
2017-09-22T04:40:28.310Z,76.84
2017-09-22T04:42:23.998Z,76.65
2017-09-22T04:43:23.950Z,76.84
2017-09-22T04:45:18.406Z,76.65
2017-09-22T04:46:18.343Z,76.56
2017-09-22T04:48:12.822Z,77.03
2017-09-22T04:49:12.831Z,77.03
2017-09-22T04:51:07.407Z,77.13
2017-09-22T04:52:07.335Z,77.03
2017-09-22T04:54:01.831Z,77.13
2017-09-22T04:55:01.855Z,76.84
2017-09-22T04:56:54.814Z,76.94
2017-09-22T04:57:54.854Z,77.13
2017-09-22T04:59:48.375Z,76.65
2017-09-22T05:00:48.360Z,76.65
2017-09-22T05:02:41.921Z,76.84
2017-09-22T05:03:42.038Z,76.84
2017-09-22T05:05:35.440Z,77.03
2017-09-22T05:06:35.387Z,76.94
2017-09-22T05:08:29.867Z,77.42
2017-09-22T05:09:30.035Z,77.03
2017-09-22T05:11:24.379Z,76.84
2017-09-22T05:12:24.507Z,76.84
2017-09-22T05:14:18.835Z,77.13
2017-09-22T05:15:18.876Z,76.94
2017-09-22T05:17:13.315Z,77.42
2017-09-22T05:18:13.347Z,77.61
2017-09-22T05:20:07.825Z,77.61
2017-09-22T05:21:07.938Z,76.94
2017-09-22T05:23:02.289Z,76.75
2017-09-22T05:24:02.329Z,77.03
2017-09-22T05:25:56.984Z,77.03
2017-09-22T05:26:56.848Z,76.94
2017-09-22T05:28:50.321Z,77.03
2017-09-22T05:29:50.343Z,76.84
2017-09-22T05:31:43.863Z,76.94
2017-09-22T05:32:43.855Z,77.32
2017-09-22T05:34:38.543Z,77.13
2017-09-22T05:35:38.360Z,77.23
2017-09-22T05:37:31.855Z,77.32
2017-09-22T05:38:32.024Z,77.32
2017-09-22T05:40:24.864Z,77.51
2017-09-22T05:41:24.863Z,77.03
2017-09-22T05:43:18.271Z,77.51
2017-09-22T05:44:18.287Z,77.13
2017-09-22T05:46:12.735Z,77.32
2017-09-22T05:47:12.816Z,77.32
2017-09-22T05:49:07.255Z,77.51
2017-09-22T05:50:07.274Z,77.42
2017-09-22T05:52:00.724Z,77.13
2017-09-22T05:53:00.759Z,77.42
2017-09-22T05:54:54.263Z,77.51
2017-09-22T05:55:54.279Z,77.51
2017-09-22T05:57:48.727Z,77.51
2017-09-22T05:58:48.799Z,77.32
2017-09-22T06:00:43.272Z,77.42
2017-09-22T06:01:43.264Z,77.99
2017-09-22T06:03:36.775Z,77.89
2017-09-22T06:04:36.856Z,77.80
2017-09-22T06:06:29.823Z,77.89
2017-09-22T06:07:30.783Z,77.80
2017-09-22T06:09:22.800Z,77.70
2017-09-22T06:10:22.847Z,78.18
2017-09-22T06:12:15.832Z,77.89
2017-09-22T06:13:15.856Z,78.09
2017-09-22T06:15:08.807Z,78.18
2017-09-22T06:16:08.856Z,78.56
2017-09-22T06:18:02.306Z,78.66
2017-09-22T06:19:02.328Z,77.99
2017-09-22T06:20:56.792Z,78.66
2017-09-22T06:21:56.816Z,78.56
2017-09-22T06:23:51.264Z,78.47
2017-09-22T06:24:51.302Z,78.47
2017-09-22T06:26:46.768Z,78.75
2017-09-22T06:27:46.808Z,78.18
2017-09-22T06:29:40.240Z,78.28
2017-09-22T06:30:40.280Z,78.47
2017-09-22T06:32:33.753Z,78.56
2017-09-22T06:33:33.760Z,78.31
2017-09-22T06:35:28.297Z,78.56
2017-09-22T06:36:28.249Z,78.37
2017-09-22T06:38:24.249Z,78.28
2017-09-22T06:39:24.241Z,78.22
2017-09-22T06:42:18.745Z,78.89
2017-09-22T06:44:13.209Z,78.22
2017-09-22T06:45:13.273Z,78.22
2017-09-22T06:47:07.745Z,78.41
2017-09-22T06:48:07.745Z,78.22
2017-09-22T06:50:01.298Z,78.89
2017-09-22T06:51:01.313Z,78.99
2017-09-22T06:52:55.771Z,78.79
2017-09-22T06:53:55.818Z,78.79
2017-09-22T06:55:50.281Z,78.99
2017-09-22T06:56:50.298Z,78.89
2017-09-22T06:58:44.785Z,78.99
2017-09-22T06:59:44.786Z,78.79
2017-09-22T07:01:39.338Z,78.79
2017-09-22T07:02:39.370Z,78.70
2017-09-22T07:04:33.822Z,78.89
2017-09-22T07:05:33.870Z,78.99
2017-09-22T07:07:28.294Z,78.99
2017-09-22T07:08:28.330Z,78.83
2017-09-22T07:10:22.794Z,78.31
2017-09-22T07:11:22.834Z,79.22
2017-09-22T07:13:17.891Z,79.12
2017-09-22T07:14:17.906Z,78.93
2017-09-22T07:16:12.339Z,79.22
2017-09-22T07:17:12.389Z,78.83
2017-09-22T07:19:05.939Z,78.64
2017-09-22T07:20:05.948Z,79.12
2017-09-22T07:21:59.405Z,78.16
2017-09-22T07:22:59.434Z,78.26
2017-09-22T07:24:53.475Z,78.39
2017-09-22T07:25:53.547Z,78.39
2017-09-22T07:27:46.500Z,78.68
2017-09-22T07:28:46.515Z,78.78
2017-09-22T07:30:40.986Z,77.82
2017-09-22T07:31:41.027Z,78.01
2017-09-22T07:33:34.475Z,77.63
2017-09-22T07:34:34.638Z,77.63
2017-09-22T07:36:28.979Z,78.05
2017-09-22T07:37:29.035Z,77.28
2017-09-22T07:39:22.579Z,77.09
2017-09-22T07:40:22.571Z,77.19
2017-09-22T07:42:17.027Z,77.38
2017-09-22T07:43:17.091Z,77.19
2017-09-22T07:45:11.596Z,77.04
2017-09-22T07:46:11.564Z,76.46
2017-09-22T07:48:06.036Z,76.37
2017-09-22T07:49:06.077Z,76.65
2017-09-22T07:51:00.671Z,76.60
2017-09-22T07:52:00.685Z,76.02
2017-09-22T07:53:55.148Z,76.02
2017-09-22T07:54:55.189Z,75.73
2017-09-22T07:56:49.661Z,75.35
2017-09-22T07:57:49.685Z,75.07
2017-09-22T07:59:44.164Z,74.49
2017-09-22T08:00:44.188Z,74.97
2017-09-22T08:02:38.644Z,74.97
2017-09-22T08:03:38.701Z,74.33
2017-09-22T08:05:32.245Z,74.33
2017-09-22T08:06:32.252Z,73.47
2017-09-22T08:08:26.736Z,73.57
2017-09-22T08:09:26.772Z,73.95
2017-09-22T08:11:21.237Z,73.19
2017-09-22T08:12:21.285Z,72.90
2017-09-22T08:14:15.861Z,73.09
2017-09-22T08:15:15.885Z,72.99
2017-09-22T08:17:10.356Z,72.27
2017-09-22T08:18:10.373Z,72.64
2017-09-22T08:20:04.837Z,72.55
2017-09-22T08:21:04.877Z,72.39
2017-09-22T08:22:59.358Z,72.20
2017-09-22T08:23:59.382Z,72.01
2017-09-22T08:25:52.949Z,72.05
2017-09-22T08:26:52.982Z,71.86
2017-09-22T08:28:45.967Z,71.09
2017-09-22T08:29:45.990Z,71.37
2017-09-22T08:31:38.998Z,70.55
2017-09-22T08:32:39.006Z,70.36
2017-09-22T08:34:33.478Z,70.45
2017-09-22T08:35:33.493Z,69.43
2017-09-22T08:37:26.998Z,69.81
2017-09-22T08:38:26.990Z,68.95
2017-09-22T08:40:21.454Z,67.99
2017-09-22T08:41:21.510Z,68.18
2017-09-22T08:43:15.958Z,68.76
2017-09-22T08:44:15.998Z,67.93
2017-09-22T08:46:09.479Z,67.93
2017-09-22T08:47:09.502Z,66.30
2017-09-22T08:49:03.030Z,66.58
2017-09-22T08:50:03.064Z,66.30
2017-09-22T08:51:56.518Z,67.00
2017-09-22T08:52:56.542Z,65.46
2017-09-22T08:54:50.110Z,65.75
2017-09-22T08:55:50.175Z,65.37
2017-09-22T08:57:44.615Z,65.56
2017-09-22T08:58:44.650Z,65.46
2017-09-22T09:00:39.127Z,65.66
2017-09-22T09:01:39.151Z,65.66
2017-09-22T09:03:32.632Z,64.69
2017-09-22T09:04:32.672Z,64.89
2017-09-22T09:06:26.239Z,64.50
2017-09-22T09:07:26.250Z,64.31
2017-09-22T09:09:19.759Z,63.95
2017-09-22T09:10:19.775Z,64.25
2017-09-22T09:12:14.255Z,63.67
2017-09-22T09:13:14.284Z,63.09
2017-09-22T09:15:08.789Z,63.76
2017-09-22T09:16:08.805Z,63.28
2017-09-22T09:18:03.285Z,62.51
2017-09-22T09:19:03.326Z,62.51
2017-09-22T09:20:57.804Z,62.74
2017-09-22T09:21:57.836Z,62.80
2017-09-22T09:23:51.413Z,62.54
2017-09-22T09:24:51.429Z,62.74
2017-09-22T09:26:44.893Z,62.26
2017-09-22T09:27:44.909Z,62.16
2017-09-22T09:29:39.405Z,62.54
2017-09-22T09:30:39.428Z,62.48
2017-09-22T09:32:33.893Z,62.00
2017-09-22T09:33:33.933Z,61.61
2017-09-22T09:35:28.397Z,61.52
2017-09-22T09:36:28.453Z,61.90
2017-09-22T09:38:22.910Z,61.35
2017-09-22T09:39:22.941Z,60.39
2017-09-22T09:41:16.473Z,61.16
2017-09-22T09:42:16.529Z,60.97
2017-09-22T09:44:11.001Z,60.30
2017-09-22T09:45:11.025Z,60.23
2017-09-22T09:47:05.521Z,59.07
2017-09-22T09:48:05.553Z,58.69
2017-09-22T09:49:59.985Z,58.91
2017-09-22T09:51:00.034Z,57.94
2017-09-22T09:52:53.530Z,58.75
2017-09-22T09:53:53.529Z,58.55
2017-09-22T09:55:47.993Z,57.49
2017-09-22T09:56:48.025Z,57.39
2017-09-22T09:58:42.529Z,57.39
2017-09-22T09:59:42.545Z,57.42
2017-09-22T10:01:37.010Z,56.96
2017-09-22T10:02:37.058Z,57.35
2017-09-22T10:04:31.545Z,54.84
2017-09-22T10:05:31.578Z,55.13
2017-09-22T10:07:26.041Z,54.94
2017-09-22T10:08:26.138Z,55.13
2017-09-22T10:10:19.698Z,54.07
2017-09-22T10:11:19.706Z,53.59
2017-09-22T10:13:14.162Z,53.69
2017-09-22T10:14:14.202Z,53.39
2017-09-22T10:16:07.707Z,53.88
2017-09-22T10:17:07.706Z,53.69
2017-09-22T10:19:02.202Z,53.78
2017-09-22T10:20:02.218Z,54.07
2017-09-22T10:21:56.682Z,53.97
2017-09-22T10:22:56.722Z,53.30
2017-09-22T10:24:51.498Z,53.95
2017-09-22T10:25:51.250Z,53.88
2017-09-22T10:27:45.707Z,53.97
2017-09-22T10:28:45.755Z,54.36
2017-09-22T10:30:40.250Z,54.17
2017-09-22T10:31:40.251Z,54.14
2017-09-22T10:33:34.379Z,54.07
2017-09-22T10:34:34.346Z,53.78
2017-09-22T10:36:27.810Z,53.49
2017-09-22T10:37:27.843Z,53.78
2017-09-22T10:39:22.299Z,53.88
2017-09-22T10:40:22.347Z,53.95
2017-09-22T10:42:16.843Z,53.27
2017-09-22T10:43:16.857Z,53.08
2017-09-22T10:45:11.355Z,53.95
2017-09-22T10:46:11.363Z,54.05
2017-09-22T10:48:05.100Z,53.95
2017-09-22T10:49:05.084Z,54.82
2017-09-22T10:50:59.564Z,53.95
2017-09-22T10:51:59.604Z,54.14
2017-09-22T10:53:54.107Z,53.95
2017-09-22T10:54:53.227Z,54.24
2017-09-22T10:56:46.180Z,54.33
2017-09-22T10:57:46.260Z,54.14
2017-09-22T10:59:40.740Z,54.14
2017-09-22T11:00:40.787Z,54.21
2017-09-22T11:02:35.357Z,54.79
2017-09-22T11:03:35.291Z,54.72
2017-09-22T11:05:29.336Z,55.18
2017-09-22T11:06:29.364Z,55.56
2017-09-22T11:08:22.349Z,54.69
2017-09-22T11:09:22.356Z,54.60
2017-09-22T11:11:15.860Z,54.79
2017-09-22T11:12:16.180Z,54.69
2017-09-22T11:14:09.428Z,55.08
2017-09-22T11:15:09.476Z,54.88
2017-09-22T11:17:04.061Z,55.49
2017-09-22T11:18:03.957Z,55.49
2017-09-22T11:19:57.525Z,55.59
2017-09-22T11:20:57.669Z,55.78
2017-09-22T11:22:52.269Z,55.04
2017-09-22T11:23:52.076Z,54.55
2017-09-22T11:25:46.613Z,54.84
2017-09-22T11:26:46.685Z,54.94
2017-09-22T11:28:41.077Z,54.36
2017-09-22T11:29:41.125Z,54.14
2017-09-22T11:31:34.158Z,53.75
2017-09-22T11:32:34.109Z,54.72
2017-09-22T11:34:27.693Z,54.33
2017-09-22T11:35:27.709Z,54.24
2017-09-22T11:37:21.253Z,54.14
2017-09-22T11:38:21.269Z,54.72
2017-09-22T11:40:14.990Z,54.14
2017-09-22T11:41:14.853Z,54.36
2017-09-22T11:43:08.637Z,53.78
2017-09-22T11:44:08.429Z,53.97
2017-09-22T11:46:02.760Z,54.10
2017-09-22T11:47:02.806Z,53.91
2017-09-22T11:48:57.334Z,53.35
2017-09-22T11:49:57.750Z,53.25
2017-09-22T11:51:51.342Z,53.96
2017-09-22T11:52:51.417Z,53.77
2017-09-22T11:54:44.382Z,53.50
2017-09-22T11:55:44.398Z,52.85
2017-09-22T11:57:37.878Z,50.35
2017-09-22T11:58:37.950Z,50.96
2017-09-22T12:00:30.943Z,50.31
2017-09-22T12:01:30.974Z,50.74
2017-09-22T12:03:23.982Z,48.58
2017-09-22T12:04:23.990Z,48.25
2017-09-22T12:06:16.978Z,45.35
2017-09-22T12:07:17.003Z,45.15
2017-09-22T12:09:09.975Z,45.90
2017-09-22T12:10:10.023Z,44.09
2017-09-22T12:12:05.024Z,40.39
2017-09-22T12:13:04.551Z,39.25
2017-09-22T12:14:59.375Z,37.65
2017-09-22T12:15:59.023Z,36.80
2017-09-22T12:17:52.592Z,34.58
2017-09-22T12:18:52.591Z,32.34
2017-09-22T12:20:45.631Z,31.10
2017-09-22T12:21:45.640Z,30.13
2017-09-22T12:23:38.599Z,28.17
2017-09-22T12:24:38.704Z,27.08
2017-09-22T12:26:31.671Z,27.08
2017-09-22T12:27:31.728Z,25.85
2017-09-22T12:29:27.680Z,28.39
2017-09-22T12:30:27.800Z,28.11
2017-09-22T12:32:21.280Z,27.00
2017-09-22T12:33:21.352Z,27.01
2017-09-22T12:35:14.791Z,28.05
2017-09-22T12:36:14.823Z,28.13
2017-09-22T12:38:09.313Z,28.03
2017-09-22T12:39:09.448Z,28.13
2017-09-22T12:41:03.816Z,28.71
2017-09-22T12:42:03.864Z,30.85
2017-09-22T12:43:58.352Z,27.78
2017-09-22T12:44:58.376Z,27.77
2017-09-22T12:46:52.856Z,29.03
2017-09-22T12:47:52.889Z,30.09
2017-09-22T12:49:47.432Z,28.22
2017-09-22T12:50:47.458Z,28.40
2017-09-22T12:52:41.993Z,28.91
2017-09-22T12:53:42.023Z,29.00
2017-09-22T12:55:35.556Z,29.77
2017-09-22T12:56:35.604Z,28.69
2017-09-22T12:58:29.084Z,29.17
2017-09-22T12:59:29.132Z,29.27
2017-09-22T13:01:29.651Z,29.85
2017-09-22T13:02:31.626Z,31.04
2017-09-22T13:04:22.652Z,31.15
2017-09-22T13:05:22.662Z,30.69
2017-09-22T13:07:18.782Z,30.04
2017-09-22T13:08:18.903Z,28.89
2017-09-22T13:10:13.782Z,26.04
2017-09-22T13:11:14.767Z,23.52
2017-09-22T13:13:06.832Z,22.66
2017-09-22T13:14:06.828Z,23.35
2017-09-22T13:15:59.877Z,25.07
2017-09-22T13:17:00.841Z,23.58
2017-09-22T13:18:52.885Z,24.16
2017-09-22T13:19:52.894Z,24.29
2017-09-22T13:21:45.933Z,22.55
2017-09-22T13:22:45.947Z,24.74
2017-09-22T13:24:38.949Z,21.56
2017-09-22T13:25:38.981Z,22.55
2017-09-22T13:27:32.005Z,25.07
2017-09-22T13:28:32.008Z,24.97
2017-09-22T13:30:27.445Z,23.17
2017-09-22T13:31:27.093Z,23.24
2017-09-22T13:33:20.580Z,23.92
2017-09-22T13:34:20.629Z,23.54
2017-09-22T13:36:13.645Z,24.65
2017-09-22T13:37:13.703Z,24.29
2017-09-22T13:39:08.213Z,22.64
2017-09-22T13:40:08.165Z,24.01
2017-09-22T13:42:04.029Z,23.07
2017-09-22T13:43:03.710Z,23.44
2017-09-22T13:44:57.253Z,24.98
2017-09-22T13:45:57.269Z,24.59
2017-09-22T13:47:50.790Z,25.74
2017-09-22T13:48:50.798Z,26.71
2017-09-22T13:50:43.798Z,26.42
2017-09-22T13:51:43.829Z,26.89
2017-09-22T13:53:46.134Z,27.58
2017-09-22T13:54:38.389Z,27.95
2017-09-22T13:56:31.382Z,27.84
2017-09-22T13:57:31.430Z,28.72
2017-09-22T13:59:24.454Z,27.91
2017-09-22T14:00:24.470Z,27.91
2017-09-22T14:02:20.491Z,28.39
2017-09-22T14:03:20.478Z,28.67
2017-09-22T14:05:16.039Z,28.94
2017-09-22T14:06:16.010Z,29.74
2017-09-22T14:08:09.031Z,29.15
2017-09-22T14:09:10.038Z,28.77
2017-09-22T14:11:02.080Z,29.15
2017-09-22T14:12:02.087Z,30.13
2017-09-22T14:13:55.143Z,30.93
2017-09-22T14:14:55.167Z,29.44
2017-09-22T14:16:49.623Z,30.00
2017-09-22T14:17:49.919Z,30.19
2017-09-22T14:19:43.215Z,30.96
2017-09-22T14:20:43.271Z,30.57
2017-09-22T14:22:36.271Z,31.82
2017-09-22T14:23:36.295Z,33.09
2017-09-22T14:25:29.327Z,32.78
2017-09-22T14:26:29.311Z,32.68
2017-09-22T14:28:22.295Z,33.23
2017-09-22T14:29:23.296Z,34.11
2017-09-22T14:31:15.343Z,34.50
2017-09-22T14:32:15.352Z,34.40
2017-09-22T14:34:08.376Z,33.91
2017-09-22T14:35:08.407Z,34.30
2017-09-22T14:37:01.400Z,34.58
2017-09-22T14:38:01.440Z,34.67
2017-09-22T14:39:54.471Z,34.48
2017-09-22T14:40:54.481Z,34.77
2017-09-22T14:42:47.464Z,35.14
2017-09-22T14:43:48.568Z,35.24
2017-09-22T14:45:40.568Z,36.02
2017-09-22T14:46:40.552Z,36.69
2017-09-22T14:48:33.552Z,36.97
2017-09-22T14:49:33.592Z,36.97
2017-09-22T14:51:26.568Z,36.87
2017-09-22T14:52:26.609Z,36.85
2017-09-22T14:54:20.112Z,36.97
2017-09-22T14:55:20.128Z,37.16
2017-09-22T14:57:14.736Z,37.34
2017-09-22T14:58:14.728Z,37.73
2017-09-22T15:00:07.665Z,39.08
2017-09-22T15:01:07.752Z,38.79
2017-09-22T15:03:00.760Z,39.08
2017-09-22T15:04:00.744Z,38.60
2017-09-22T15:05:54.185Z,38.99
2017-09-22T15:06:54.241Z,39.16
2017-09-22T15:08:48.752Z,40.03
2017-09-22T15:09:48.736Z,39.55
2017-09-22T15:11:42.232Z,39.26
2017-09-22T15:12:42.288Z,39.18
2017-09-22T15:14:36.309Z,39.45
2017-09-22T15:15:35.880Z,39.26
2017-09-22T15:17:30.349Z,38.70
2017-09-22T15:18:30.863Z,39.06
2017-09-22T15:20:24.863Z,38.68
2017-09-22T15:21:24.882Z,38.68
2017-09-22T15:23:19.359Z,39.26
2017-09-22T15:24:19.391Z,39.24
2017-09-22T15:26:13.880Z,39.36
2017-09-22T15:27:13.895Z,39.84
2017-09-22T15:29:08.359Z,39.45
2017-09-22T15:30:08.423Z,39.65
2017-09-22T15:32:01.904Z,39.55
2017-09-22T15:33:01.936Z,40.33
2017-09-22T15:34:55.512Z,39.86
2017-09-22T15:35:55.576Z,39.74
2017-09-22T15:37:50.016Z,39.94
2017-09-22T15:38:50.032Z,39.26
2017-09-22T15:40:44.544Z,39.45
2017-09-22T15:41:44.584Z,40.23
2017-09-22T15:43:39.032Z,40.33
2017-09-22T15:44:39.048Z,40.33
2017-09-22T15:46:33.150Z,40.52
2017-09-22T15:47:33.113Z,40.42
2017-09-22T15:49:26.184Z,40.03
2017-09-22T15:50:26.144Z,39.84
2017-09-22T15:52:19.617Z,39.84
2017-09-22T15:53:20.648Z,39.55
2017-09-22T15:55:14.185Z,39.65
2017-09-22T15:56:14.225Z,39.55
2017-09-22T15:58:10.352Z,40.03
2017-09-22T15:59:11.153Z,40.13
2017-09-22T16:01:03.353Z,40.11
2017-09-22T16:02:03.361Z,40.01
2017-09-22T16:03:56.352Z,40.21
2017-09-22T16:04:57.376Z,40.59
2017-09-22T16:06:49.400Z,40.40
2017-09-22T16:07:49.409Z,40.11
2017-09-22T16:09:43.362Z,41.35
2017-09-22T16:10:42.401Z,40.96
2017-09-22T16:12:35.466Z,41.06
2017-09-22T16:13:35.473Z,41.16
2017-09-22T16:15:28.450Z,41.16
2017-09-22T16:16:28.497Z,41.24
2017-09-22T16:18:21.506Z,42.10
2017-09-22T16:19:21.577Z,42.97
2017-09-22T16:21:14.506Z,43.17
2017-09-22T16:22:14.562Z,42.59
2017-09-22T16:24:07.530Z,43.15
2017-09-22T16:25:07.602Z,43.44
2017-09-22T16:27:00.554Z,43.24
2017-09-22T16:28:00.602Z,43.24
2017-09-22T16:29:54.058Z,42.96
2017-09-22T16:30:54.083Z,42.93
2017-09-22T16:32:47.122Z,43.61
2017-09-22T16:33:47.139Z,43.41
2017-09-22T16:35:41.586Z,43.51
2017-09-22T16:36:41.597Z,43.41
2017-09-22T16:38:36.203Z,43.41
2017-09-22T16:39:36.106Z,43.88
2017-09-22T16:41:30.690Z,43.40
2017-09-22T16:42:30.731Z,44.17
2017-09-22T16:44:25.507Z,44.46
2017-09-22T16:45:25.339Z,44.56
2017-09-22T16:47:19.379Z,44.84
2017-09-22T16:48:19.387Z,44.75
2017-09-22T16:50:12.379Z,45.33
2017-09-22T16:51:12.419Z,45.50
2017-09-22T16:53:05.488Z,44.92
2017-09-22T16:54:05.435Z,46.37
2017-09-22T16:55:58.443Z,46.95
2017-09-22T16:57:00.419Z,47.33
2017-09-22T16:58:51.979Z,46.37
2017-09-22T16:59:51.987Z,46.85
2017-09-22T17:01:46.596Z,46.83
2017-09-22T17:02:46.535Z,47.31
2017-09-22T17:04:40.972Z,47.80
2017-09-22T17:05:41.140Z,47.60
2017-09-22T17:07:34.564Z,48.76
2017-09-22T17:08:34.564Z,49.15
2017-09-22T17:10:27.580Z,49.63
2017-09-22T17:11:27.604Z,50.01
2017-09-22T17:13:21.189Z,50.18
2017-09-22T17:14:21.516Z,50.21
2017-09-22T17:16:16.636Z,49.90
2017-09-22T17:17:17.644Z,50.18
2017-09-22T17:19:10.157Z,49.51
2017-09-22T17:20:10.165Z,49.99
2017-09-22T17:22:03.198Z,51.34
2017-09-22T17:23:03.253Z,51.53
2017-09-22T17:24:56.149Z,51.44
2017-09-22T17:25:56.229Z,51.82
2017-09-22T17:27:50.669Z,52.01
2017-09-22T17:28:50.686Z,52.19
2017-09-22T17:30:45.269Z,51.89
2017-09-22T17:31:45.341Z,51.89
2017-09-22T17:33:38.292Z,51.61
2017-09-22T17:34:38.317Z,52.09
2017-09-22T17:36:31.756Z,52.86
2017-09-22T17:37:31.796Z,53.25
2017-09-22T17:39:25.300Z,53.41
2017-09-22T17:40:25.320Z,53.89
2017-09-22T17:42:18.779Z,54.09
2017-09-22T17:43:18.819Z,54.66
2017-09-22T17:45:12.395Z,54.57
2017-09-22T17:46:13.355Z,54.76
2017-09-22T17:48:06.859Z,54.96
2017-09-22T17:49:06.900Z,54.86
2017-09-22T17:51:00.571Z,53.61
2017-09-22T17:52:00.516Z,53.99
2017-09-22T17:53:53.932Z,54.83
2017-09-22T17:54:53.971Z,55.02
2017-09-22T17:56:48.564Z,55.31
2017-09-22T17:57:48.572Z,55.70
2017-09-22T17:59:42.132Z,55.70
2017-09-22T18:00:42.092Z,56.37
2017-09-22T18:02:37.174Z,56.76
2017-09-22T18:03:36.765Z,56.66
2017-09-22T18:05:30.156Z,55.70
2017-09-22T18:06:30.236Z,55.60
2017-09-22T18:08:24.717Z,55.70
2017-09-22T18:09:24.724Z,55.41
2017-09-22T18:11:19.173Z,56.76
2017-09-22T18:12:19.235Z,57.43
2017-09-22T18:14:13.733Z,57.53
2017-09-22T18:15:13.709Z,57.31
2017-09-22T18:17:09.764Z,57.21
2017-09-22T18:18:09.797Z,57.60
2017-09-22T18:20:04.349Z,58.17
2017-09-22T18:21:04.277Z,58.27
2017-09-22T18:22:58.741Z,57.69
2017-09-22T18:23:58.885Z,57.60
2017-09-22T18:25:53.253Z,57.60
2017-09-22T18:26:53.277Z,58.75
2017-09-22T18:28:47.758Z,58.65
2017-09-22T18:29:47.781Z,59.04
2017-09-22T18:31:41.405Z,58.75
2017-09-22T18:32:41.366Z,58.95
2017-09-22T18:34:35.813Z,59.04
2017-09-22T18:35:35.845Z,60.10
2017-09-22T18:37:30.477Z,59.91
2017-09-22T18:38:30.485Z,59.91
2017-09-22T18:40:24.976Z,59.81
2017-09-22T18:41:24.974Z,59.62
2017-09-22T18:43:19.454Z,59.88